Aughwick, Pennsylvania
Current Conditions -  °F | °C
As of 6:53 AM on Saturday 01 Nov 2014 (Local Time) from KAOO Reporting Station
Overcast Overcast  
Wind Chill: 37°   Ceiling: 6500
Heat Index: 40°   Visibility: 10mi
Dew Point: 37°   Wind: 5mph
Humidity: 89%   Direction: 40°NE
Pressure: 29.87"   Gusts: NA
Location:  40.4281°N, 77.8329°W
Report Text: KAOO 011053Z AUTO 04004KT 10SM BKN065 OVC095 04/03 A2987 RMK AO2 SLP125 T00440028
Loading
Personal Weather Stations






























Interactive Weather Map
Tropical Storm Tracking
New forecast layout! Learn more

10-Day Weather Forecast

Advertisements
Track Severe Weather on mobile